createdAt,value
2017-09-04T00:01:30.352Z,88.20
2017-09-04T00:03:56.318Z,88.50
2017-09-04T00:06:22.443Z,89.00
2017-09-04T00:08:48.653Z,89.20
2017-09-04T00:11:16.951Z,88.80
2017-09-04T00:13:42.952Z,88.60
2017-09-04T00:16:08.975Z,89.10
2017-09-04T00:18:35.204Z,89.30
2017-09-04T00:21:01.329Z,89.60
2017-09-04T00:23:27.352Z,89.40
2017-09-04T00:25:53.397Z,89.60
2017-09-04T00:28:19.392Z,89.90
2017-09-04T00:30:45.413Z,90.00
2017-09-04T00:33:11.408Z,90.00
2017-09-04T00:35:37.381Z,89.20
2017-09-04T00:38:03.339Z,89.00
2017-09-04T00:40:29.303Z,88.50
2017-09-04T00:42:55.269Z,88.50
2017-09-04T00:45:21.239Z,88.30
2017-09-04T00:47:47.342Z,88.50
2017-09-04T00:50:13.285Z,88.70
2017-09-04T00:52:39.334Z,89.20
2017-09-04T00:55:06.179Z,89.20
2017-09-04T00:57:32.221Z,89.50
2017-09-04T00:59:58.298Z,88.80
2017-09-04T01:02:24.421Z,88.80
2017-09-04T01:04:50.451Z,88.90
2017-09-04T01:07:16.402Z,89.20
2017-09-04T01:09:43.316Z,89.40
2017-09-04T01:12:09.369Z,89.40
2017-09-04T01:14:36.092Z,89.80
2017-09-04T01:17:02.129Z,89.60
2017-09-04T01:19:28.136Z,89.80
2017-09-04T01:21:54.409Z,90.10
2017-09-04T01:24:20.432Z,90.40
2017-09-04T01:26:46.410Z,90.50
2017-09-04T01:29:12.328Z,90.60
2017-09-04T01:31:38.555Z,90.70
2017-09-04T01:34:04.538Z,90.90
2017-09-04T01:36:30.651Z,91.10
2017-09-04T01:38:56.616Z,91.10
2017-09-04T01:41:22.600Z,90.90
2017-09-04T01:43:48.588Z,90.70
2017-09-04T01:46:14.576Z,90.60
2017-09-04T01:48:40.612Z,90.50
2017-09-04T01:51:06.576Z,90.50
2017-09-04T01:53:32.612Z,90.50
2017-09-04T01:55:58.612Z,90.30
2017-09-04T01:58:24.555Z,90.00
2017-09-04T02:00:50.575Z,90.30
2017-09-04T02:03:16.555Z,90.30
2017-09-04T02:05:42.583Z,90.50
2017-09-04T02:08:08.638Z,90.50
2017-09-04T02:10:34.714Z,90.50
2017-09-04T02:13:00.687Z,90.50
2017-09-04T02:15:26.775Z,90.50
2017-09-04T02:17:52.842Z,90.50
2017-09-04T02:20:19.836Z,90.60
2017-09-04T02:22:45.884Z,90.40
2017-09-04T02:25:12.795Z,90.30
2017-09-04T02:27:38.966Z,90.30
2017-09-04T02:30:05.261Z,90.40
2017-09-04T02:32:31.200Z,90.40
2017-09-04T02:34:57.146Z,90.40
2017-09-04T02:37:23.090Z,90.30
2017-09-04T02:39:49.063Z,90.30
2017-09-04T02:42:15.057Z,90.40
2017-09-04T02:44:41.020Z,90.30
2017-09-04T02:47:06.980Z,90.00
2017-09-04T02:49:32.972Z,89.60
2017-09-04T02:51:58.987Z,89.70
2017-09-04T02:54:25.017Z,90.00
2017-09-04T02:56:51.008Z,90.10
2017-09-04T02:59:17.032Z,90.20
2017-09-04T03:01:43.048Z,90.00
2017-09-04T03:04:10.019Z,89.80
2017-09-04T03:06:36.056Z,90.00
2017-09-04T03:09:02.043Z,90.10
2017-09-04T03:11:29.005Z,89.90
2017-09-04T03:13:55.073Z,90.00
2017-09-04T03:16:21.139Z,90.20
2017-09-04T03:18:47.210Z,90.30
2017-09-04T03:21:13.208Z,90.40
2017-09-04T03:23:40.192Z,90.50
2017-09-04T03:26:06.207Z,90.80
2017-09-04T03:28:32.187Z,90.70
2017-09-04T03:30:58.276Z,90.80
2017-09-04T03:33:25.158Z,90.90
2017-09-04T03:35:51.115Z,91.10
2017-09-04T03:38:17.103Z,91.20
2017-09-04T03:40:43.111Z,91.10
2017-09-04T03:43:09.148Z,91.20
2017-09-04T03:45:35.159Z,91.40
2017-09-04T03:48:01.103Z,91.50
2017-09-04T03:50:27.067Z,91.50
2017-09-04T03:52:53.131Z,91.50
2017-09-04T03:55:19.155Z,91.40
2017-09-04T03:57:45.176Z,91.40
2017-09-04T04:00:11.186Z,91.10
2017-09-04T04:02:37.189Z,90.70
2017-09-04T04:05:03.153Z,91.00
2017-09-04T04:07:29.166Z,90.90
2017-09-04T04:09:55.113Z,90.50
2017-09-04T04:12:21.116Z,90.60
2017-09-04T04:14:47.131Z,91.00
2017-09-04T04:17:13.178Z,90.90
2017-09-04T04:19:39.198Z,91.00
2017-09-04T04:22:05.433Z,91.00
2017-09-04T04:24:31.444Z,91.20
2017-09-04T04:26:57.563Z,91.30
2017-09-04T04:29:23.533Z,91.30
2017-09-04T04:31:49.583Z,91.00
2017-09-04T04:34:15.631Z,91.00
2017-09-04T04:36:43.092Z,90.90
2017-09-04T04:39:09.787Z,91.10
2017-09-04T04:41:35.748Z,91.30
2017-09-04T04:44:02.356Z,91.60
2017-09-04T04:46:28.889Z,91.70
2017-09-04T04:48:54.893Z,91.60
2017-09-04T04:51:20.991Z,91.70
2017-09-04T04:53:47.932Z,91.90
2017-09-04T04:56:13.928Z,92.00
2017-09-04T04:58:39.978Z,92.20
2017-09-04T05:01:07.870Z,92.30
2017-09-04T05:03:33.911Z,92.50
2017-09-04T05:05:59.922Z,93.00
2017-09-04T05:08:25.925Z,92.90
2017-09-04T05:10:51.966Z,92.90
2017-09-04T05:13:18.482Z,92.80
2017-09-04T05:15:44.628Z,92.70
2017-09-04T05:18:10.629Z,92.60
2017-09-04T05:20:36.654Z,92.80
2017-09-04T05:23:03.693Z,92.90
2017-09-04T05:25:29.725Z,92.90
2017-09-04T05:27:55.865Z,92.90
2017-09-04T05:30:21.937Z,92.70
2017-09-04T05:32:48.745Z,92.40
2017-09-04T05:35:15.551Z,92.10
2017-09-04T05:37:42.368Z,91.60
2017-09-04T05:40:08.424Z,91.30
2017-09-04T05:42:35.394Z,91.10
2017-09-04T05:45:01.538Z,90.80
2017-09-04T05:47:27.571Z,90.90
2017-09-04T05:49:53.551Z,90.90
2017-09-04T05:52:19.551Z,91.00
2017-09-04T05:54:45.540Z,90.80
2017-09-04T05:57:11.567Z,90.60
2017-09-04T05:59:37.633Z,90.50
2017-09-04T06:02:03.642Z,90.10
2017-09-04T06:04:30.519Z,90.00
2017-09-04T06:06:56.463Z,89.80
2017-09-04T06:09:22.715Z,89.50
2017-09-04T06:11:48.792Z,90.00
2017-09-04T06:14:14.755Z,90.20
2017-09-04T06:16:40.756Z,90.20
2017-09-04T06:19:06.752Z,90.20
2017-09-04T06:21:32.776Z,90.20
2017-09-04T06:23:59.691Z,90.00
2017-09-04T06:26:25.743Z,90.10
2017-09-04T06:28:51.747Z,90.30
2017-09-04T06:31:18.126Z,90.60
2017-09-04T06:33:44.096Z,90.80
2017-09-04T06:36:10.332Z,90.60
2017-09-04T06:38:36.370Z,90.10
2017-09-04T06:41:02.367Z,88.70
2017-09-04T06:43:28.903Z,88.60
2017-09-04T06:45:55.114Z,88.50
2017-09-04T06:48:21.084Z,87.60
2017-09-04T06:50:47.047Z,87.00
2017-09-04T06:53:13.047Z,87.30
2017-09-04T06:55:39.123Z,87.20
2017-09-04T06:58:05.989Z,85.90
2017-09-04T07:00:32.115Z,85.60
2017-09-04T07:02:58.142Z,85.40
2017-09-04T07:05:25.592Z,85.80
2017-09-04T07:07:53.286Z,86.00
2017-09-04T07:10:19.495Z,86.60
2017-09-04T07:12:45.968Z,86.30
2017-09-04T07:15:12.257Z,85.30
2017-09-04T07:17:38.380Z,84.80
2017-09-04T07:20:04.614Z,84.20
2017-09-04T07:22:32.664Z,83.40
2017-09-04T07:24:58.703Z,82.90
2017-09-04T07:27:24.728Z,82.50
2017-09-04T07:29:50.792Z,82.50
2017-09-04T07:32:16.824Z,82.30
2017-09-04T07:34:43.047Z,81.80
2017-09-04T07:37:10.047Z,81.50
2017-09-04T07:39:37.125Z,80.60
2017-09-04T07:42:03.259Z,81.40
2017-09-04T07:44:29.391Z,80.50
2017-09-04T07:46:56.232Z,79.30
2017-09-04T07:49:22.238Z,78.80
2017-09-04T07:51:48.211Z,78.70
2017-09-04T07:54:14.133Z,79.20
2017-09-04T07:56:43.324Z,78.50
2017-09-04T07:59:09.399Z,78.50
2017-09-04T08:01:35.330Z,78.60
2017-09-04T08:04:01.372Z,78.40
2017-09-04T08:06:27.655Z,78.50
2017-09-04T08:08:53.662Z,76.90
2017-09-04T08:11:19.627Z,76.40
2017-09-04T08:13:46.158Z,76.00
2017-09-04T08:16:12.199Z,75.90
2017-09-04T08:18:38.201Z,76.40
2017-09-04T08:21:04.529Z,75.80
2017-09-04T08:23:30.899Z,75.40
2017-09-04T08:25:56.856Z,75.20
2017-09-04T08:28:23.016Z,75.10
2017-09-04T08:30:49.455Z,75.70
2017-09-04T08:33:15.487Z,75.60
2017-09-04T08:35:41.525Z,75.40
2017-09-04T08:38:08.372Z,75.10
2017-09-04T08:40:34.778Z,74.20
2017-09-04T08:43:00.775Z,73.30
2017-09-04T08:45:28.195Z,72.50
2017-09-04T08:47:55.435Z,72.20
2017-09-04T08:52:52.221Z,71.80
2017-09-04T08:55:19.460Z,72.10
2017-09-04T08:57:46.627Z,71.70
2017-09-04T09:00:12.617Z,71.40
2017-09-04T09:02:41.200Z,71.10
2017-09-04T09:05:07.269Z,71.20
2017-09-04T09:07:33.341Z,70.60
2017-09-04T09:09:59.349Z,69.90
2017-09-04T09:12:25.362Z,69.60
2017-09-04T09:14:51.339Z,69.00
2017-09-04T09:17:17.292Z,68.60
2017-09-04T09:19:43.288Z,68.10
2017-09-04T09:22:09.345Z,67.50
2017-09-04T09:24:36.106Z,67.20
2017-09-04T09:27:02.096Z,68.10
2017-09-04T09:29:28.948Z,68.30
2017-09-04T09:31:54.924Z,67.90
2017-09-04T09:34:21.928Z,68.00
2017-09-04T09:36:49.277Z,67.10
2017-09-04T09:39:17.187Z,66.80
2017-09-04T09:41:43.514Z,65.00
2017-09-04T09:44:11.010Z,64.80
2017-09-04T09:46:39.285Z,64.30
2017-09-04T09:49:05.323Z,62.60
2017-09-04T09:51:32.276Z,62.80
2017-09-04T09:53:59.114Z,63.00
2017-09-04T09:56:25.551Z,64.40
2017-09-04T09:58:51.605Z,63.90
2017-09-04T10:01:17.591Z,64.00
2017-09-04T10:03:45.355Z,65.40
2017-09-04T10:06:12.819Z,64.20
2017-09-04T10:08:38.839Z,63.80
2017-09-04T10:11:05.364Z,63.20
2017-09-04T10:13:33.028Z,63.80
2017-09-04T10:16:01.453Z,63.00
2017-09-04T10:18:27.443Z,62.50
2017-09-04T10:20:53.459Z,61.00
2017-09-04T10:23:19.536Z,60.20
2017-09-04T10:25:46.818Z,60.50
2017-09-04T10:28:12.891Z,59.70
2017-09-04T10:30:39.475Z,60.70
2017-09-04T10:33:06.014Z,61.10
2017-09-04T10:35:32.713Z,60.30
2017-09-04T10:37:59.070Z,59.20
2017-09-04T10:40:25.146Z,60.20
2017-09-04T10:42:51.228Z,59.20
2017-09-04T10:45:17.243Z,59.00
2017-09-04T10:47:43.291Z,58.70
2017-09-04T10:50:09.246Z,57.70
2017-09-04T10:52:35.691Z,58.00
2017-09-04T10:55:01.712Z,58.70
2017-09-04T10:57:27.971Z,58.20
2017-09-04T10:59:53.959Z,57.80
2017-09-04T11:02:20.001Z,56.80
2017-09-04T11:04:46.220Z,56.90
2017-09-04T11:07:18.596Z,56.40
2017-09-04T11:09:48.406Z,54.70
2017-09-04T11:12:14.960Z,54.30
2017-09-04T11:14:42.456Z,52.80
2017-09-04T11:17:08.507Z,51.90
2017-09-04T11:19:34.464Z,52.50
2017-09-04T11:22:00.569Z,50.40
2017-09-04T11:24:26.532Z,50.90
2017-09-04T11:26:52.563Z,50.20
2017-09-04T11:29:18.526Z,49.40
2017-09-04T11:31:44.515Z,50.20
2017-09-04T11:34:10.467Z,51.60
2017-09-04T11:36:36.506Z,50.80
2017-09-04T11:39:02.709Z,50.90
2017-09-04T11:41:28.942Z,50.30
2017-09-04T11:43:55.592Z,50.50
2017-09-04T11:46:22.823Z,50.10
2017-09-04T11:48:48.915Z,50.10
2017-09-04T11:51:14.989Z,49.40
2017-09-04T11:53:41.305Z,48.80
2017-09-04T11:56:08.295Z,48.20
2017-09-04T11:58:35.195Z,48.60
2017-09-04T12:01:01.182Z,49.30
2017-09-04T12:03:27.213Z,48.40
2017-09-04T12:05:53.216Z,45.80
2017-09-04T12:08:19.223Z,46.50
2017-09-04T12:10:45.227Z,47.00
2017-09-04T12:13:11.276Z,46.90
2017-09-04T12:15:37.286Z,46.00
2017-09-04T12:18:03.329Z,43.70
2017-09-04T12:20:29.314Z,43.50
2017-09-04T12:22:55.450Z,44.00
2017-09-04T12:25:21.520Z,44.90
2017-09-04T12:27:47.583Z,44.70
2017-09-04T12:30:14.995Z,44.50
2017-09-04T12:32:40.955Z,43.90
2017-09-04T12:35:08.065Z,44.10
2017-09-04T12:37:35.102Z,43.00
2017-09-04T12:40:01.213Z,44.30
2017-09-04T12:42:27.339Z,44.80
2017-09-04T12:44:53.360Z,45.20
2017-09-04T12:47:19.421Z,44.50
2017-09-04T12:49:45.419Z,44.20
2017-09-04T12:52:11.516Z,42.70
2017-09-04T12:54:37.548Z,43.50
2017-09-04T12:57:03.577Z,43.50
2017-09-04T12:59:29.705Z,42.70
2017-09-04T13:01:55.723Z,43.20
2017-09-04T13:04:21.891Z,43.50
2017-09-04T13:06:49.096Z,43.40
2017-09-04T13:09:15.204Z,42.80
2017-09-04T13:11:47.184Z,43.10
2017-09-04T13:14:20.730Z,42.70
2017-09-04T13:16:52.749Z,41.20
2017-09-04T13:19:24.657Z,41.90
2017-09-04T13:21:56.855Z,42.30
2017-09-04T13:24:28.989Z,43.10
2017-09-04T13:27:01.480Z,42.60
2017-09-04T13:29:33.583Z,42.70
2017-09-04T13:32:06.631Z,41.70
2017-09-04T13:34:39.611Z,43.00
2017-09-04T13:37:07.552Z,40.40
2017-09-04T13:39:41.333Z,40.10
2017-09-04T13:42:10.944Z,39.70
2017-09-04T13:44:43.151Z,39.70
2017-09-04T13:47:24.344Z,39.70
2017-09-04T13:49:56.294Z,40.70
2017-09-04T13:52:25.249Z,40.30
2017-09-04T13:55:01.641Z,39.80
2017-09-04T13:57:33.858Z,39.70
2017-09-04T14:00:04.949Z,39.00
2017-09-04T14:02:32.797Z,38.50
2017-09-04T14:05:02.074Z,39.60
2017-09-04T14:10:13.771Z,38.90
2017-09-04T14:12:45.859Z,38.50
2017-09-04T14:15:19.438Z,38.30
2017-09-04T14:17:47.471Z,38.00
2017-09-04T14:20:13.474Z,37.50
2017-09-04T14:25:12.657Z,35.70
2017-09-04T14:27:38.712Z,36.60
2017-09-04T14:30:05.639Z,38.10
2017-09-04T14:32:33.573Z,38.60
2017-09-04T14:35:01.328Z,39.60
2017-09-04T14:37:28.487Z,40.20
2017-09-04T14:39:55.280Z,39.20
2017-09-04T14:42:21.356Z,39.00
2017-09-04T14:44:48.285Z,38.50
2017-09-04T14:47:17.605Z,38.10
2017-09-04T14:49:46.287Z,37.70
2017-09-04T14:52:13.668Z,36.80
2017-09-04T14:54:39.687Z,35.90
2017-09-04T14:57:07.419Z,36.30
2017-09-04T14:59:35.716Z,36.70
2017-09-04T15:02:01.895Z,37.60
2017-09-04T15:04:28.663Z,37.60
2017-09-04T15:06:56.693Z,37.50
2017-09-04T15:09:23.418Z,37.20
2017-09-04T15:11:54.078Z,38.20
2017-09-04T15:14:23.818Z,38.60
2017-09-04T15:16:52.011Z,36.70
2017-09-04T15:22:20.621Z,36.10
2017-09-04T15:24:46.744Z,36.20
2017-09-04T15:27:12.824Z,36.60
2017-09-04T15:29:42.363Z,36.20
2017-09-04T15:32:10.216Z,36.10
2017-09-04T15:34:37.372Z,37.10
2017-09-04T15:37:03.405Z,38.50
2017-09-04T15:39:29.472Z,39.30
2017-09-04T15:41:56.448Z,39.20
2017-09-04T15:44:26.184Z,38.10
2017-09-04T15:46:55.283Z,37.80
2017-09-04T15:49:21.740Z,37.80
2017-09-04T15:51:47.884Z,36.70
2017-09-04T15:54:14.008Z,37.50
2017-09-04T15:56:43.401Z,37.40
2017-09-04T15:59:10.410Z,37.10
2017-09-04T16:01:37.678Z,37.50
2017-09-04T16:04:04.045Z,36.50
2017-09-04T16:06:32.911Z,36.20
2017-09-04T16:09:00.414Z,35.40
2017-09-04T16:11:26.736Z,37.40
2017-09-04T16:14:07.709Z,39.10
2017-09-04T16:16:49.758Z,39.80
2017-09-04T16:19:17.598Z,40.10
2017-09-04T16:21:47.539Z,41.10
2017-09-04T16:27:02.559Z,42.80
2017-09-04T16:29:30.419Z,44.30
2017-09-04T16:31:57.496Z,45.80
2017-09-04T16:37:08.427Z,47.20
2017-09-04T16:39:45.155Z,48.00
2017-09-04T16:42:18.714Z,48.70
2017-09-04T16:47:22.767Z,49.80
2017-09-04T16:49:55.771Z,50.20
2017-09-04T16:52:28.330Z,50.90
2017-09-04T16:55:00.813Z,51.80
2017-09-04T16:57:30.165Z,52.60
2017-09-04T16:59:56.312Z,53.10
2017-09-04T17:02:26.280Z,53.80
2017-09-04T17:04:53.063Z,53.50
2017-09-04T17:07:19.189Z,53.50
2017-09-04T17:09:46.273Z,53.80
2017-09-04T17:12:14.856Z,53.80
2017-09-04T17:14:46.834Z,54.50
2017-09-04T17:20:06.832Z,54.40
2017-09-04T17:22:35.864Z,54.40
2017-09-04T17:25:03.172Z,54.70
2017-09-04T17:27:34.801Z,54.90
2017-09-04T17:30:01.804Z,54.90
2017-09-04T17:35:02.528Z,55.20
2017-09-04T17:37:30.878Z,55.20
2017-09-04T17:40:01.537Z,55.70
2017-09-04T17:42:30.100Z,55.90
2017-09-04T17:44:57.329Z,55.90
2017-09-04T17:47:24.014Z,55.90
2017-09-04T17:49:54.493Z,56.40
2017-09-04T17:52:25.373Z,56.50
2017-09-04T17:54:51.458Z,56.50
2017-09-04T18:00:05.016Z,56.60
2017-09-04T18:02:33.482Z,57.10
2017-09-04T18:04:59.544Z,57.20
2017-09-04T18:07:29.803Z,57.50
2017-09-04T18:12:36.222Z,57.90
2017-09-04T18:15:04.008Z,57.90
2017-09-04T18:17:30.413Z,58.20
2017-09-04T18:25:07.047Z,58.40
2017-09-04T18:30:17.146Z,58.80
2017-09-04T18:35:51.148Z,58.00
2017-09-04T18:38:28.985Z,58.80
2017-09-04T18:46:09.130Z,58.00
2017-09-04T18:51:46.037Z,58.00
2017-09-04T18:54:20.123Z,58.20
2017-09-04T19:02:28.203Z,58.00
2017-09-04T19:05:06.949Z,58.30
2017-09-04T19:07:38.107Z,58.40
2017-09-04T19:10:16.229Z,58.70
2017-09-04T19:15:25.226Z,58.80
2017-09-04T19:25:49.483Z,59.10
2017-09-04T19:28:18.147Z,59.30
2017-09-04T19:30:49.249Z,59.00
2017-09-04T19:36:06.332Z,59.80
2017-09-04T19:38:40.052Z,59.80
2017-09-04T19:43:57.942Z,60.70
2017-09-04T19:52:03.418Z,60.50
2017-09-04T19:54:29.533Z,60.40
2017-09-04T19:56:56.946Z,60.40
2017-09-04T20:04:54.445Z,60.40
2017-09-04T20:15:16.615Z,60.30
2017-09-04T20:17:45.539Z,60.40
2017-09-04T20:20:12.582Z,60.60
2017-09-04T20:22:59.661Z,61.10
2017-09-04T20:25:28.774Z,62.00
2017-09-04T20:27:59.912Z,63.70
2017-09-04T20:30:30.118Z,65.10
2017-09-04T20:32:56.352Z,64.90
2017-09-04T20:35:28.309Z,64.00
2017-09-04T20:43:22.845Z,64.70
2017-09-04T20:45:51.461Z,64.50
2017-09-04T20:48:18.355Z,64.80
2017-09-04T21:01:08.509Z,63.20
2017-09-04T21:03:34.542Z,62.60
2017-09-04T21:06:00.661Z,63.60
2017-09-04T21:08:26.703Z,62.80
2017-09-04T21:10:52.986Z,62.40
2017-09-04T21:13:18.984Z,62.80
2017-09-04T21:15:45.012Z,63.40
2017-09-04T21:18:11.932Z,63.50
2017-09-04T21:20:37.922Z,63.10
2017-09-04T21:23:03.949Z,62.50
2017-09-04T21:25:29.965Z,61.40
2017-09-04T21:27:57.331Z,60.30
2017-09-04T21:30:23.316Z,59.90
2017-09-04T21:32:49.403Z,59.90
2017-09-04T21:35:16.240Z,59.10
2017-09-04T21:37:43.496Z,59.00
2017-09-04T21:40:10.486Z,58.80
2017-09-04T21:42:40.989Z,58.90
2017-09-04T21:45:09.283Z,59.20
2017-09-04T21:47:37.451Z,59.70
2017-09-04T21:50:06.887Z,59.90
2017-09-04T21:52:42.007Z,60.90
2017-09-04T21:55:10.940Z,62.60
2017-09-04T21:57:46.927Z,64.40
2017-09-04T22:00:22.807Z,64.90
2017-09-04T22:02:54.752Z,65.10
2017-09-04T22:05:21.988Z,65.70
2017-09-04T22:07:49.382Z,65.80
2017-09-04T22:10:18.212Z,66.10
2017-09-04T22:12:47.857Z,66.10
2017-09-04T22:15:15.762Z,66.20
2017-09-04T22:17:51.315Z,67.30
2017-09-04T22:20:19.738Z,67.80
2017-09-04T22:22:48.420Z,68.80
2017-09-04T22:25:17.920Z,69.60
2017-09-04T22:27:46.361Z,70.00
2017-09-04T22:30:13.042Z,70.20
2017-09-04T22:32:46.997Z,70.30
2017-09-04T22:35:17.090Z,71.00
2017-09-04T22:37:49.687Z,71.30
2017-09-04T22:40:20.489Z,71.80
2017-09-04T22:42:49.125Z,72.20
2017-09-04T22:45:18.160Z,72.50
2017-09-04T22:47:44.862Z,72.80
2017-09-04T22:50:15.336Z,73.00
2017-09-04T22:52:43.869Z,73.50
2017-09-04T22:55:11.989Z,73.00
2017-09-04T22:57:40.427Z,73.10
2017-09-04T23:00:08.603Z,72.90
2017-09-04T23:02:35.674Z,73.40
2017-09-04T23:05:02.525Z,73.60
2017-09-04T23:07:34.927Z,74.00
2017-09-04T23:10:04.175Z,74.40
2017-09-04T23:12:31.757Z,74.50
2017-09-04T23:14:59.560Z,74.80
2017-09-04T23:17:27.131Z,75.00
2017-09-04T23:19:53.194Z,74.80
2017-09-04T23:22:20.215Z,75.00
2017-09-04T23:24:47.687Z,75.00
2017-09-04T23:27:13.797Z,75.50
2017-09-04T23:29:41.182Z,76.00
2017-09-04T23:32:07.928Z,76.30
2017-09-04T23:34:34.929Z,76.50
2017-09-04T23:37:02.821Z,77.30
2017-09-04T23:39:31.601Z,78.00
2017-09-04T23:41:57.740Z,78.90
2017-09-04T23:44:23.754Z,79.10
2017-09-04T23:46:49.796Z,79.20
2017-09-04T23:49:17.642Z,79.40
2017-09-04T23:51:44.310Z,79.50
2017-09-04T23:54:11.299Z,79.40
2017-09-04T23:56:38.979Z,79.40
2017-09-04T23:59:06.368Z,79.70
